Terminal Aerodrome Forecast
Issued by NWS

Home | Current Version | Previous Version | Text Only | Print | Product List | Glossary On
Versions: 1 2 3 4 5 6 7 8 9 10 11 12
000
FTUS45 KABQ 292340
TAFLVS
TAF
KLVS 292340Z 3000/3024 13008KT P6SM SCT090 BKN200
     FM300300 18008KT P6SM FEW100 SCT150
     FM302000 20010G17KT P6SM FEW090 SCT150=

USA.gov is the U.S. government's official web portal to all federal, state and local government web resources and services.